createdAt,value
2023-03-07T00:00:41.000Z,992.4
2023-03-07T00:02:08.000Z,992.4
2023-03-07T00:04:53.000Z,992.3
2023-03-07T00:07:37.000Z,992.3
2023-03-07T00:10:22.000Z,992.3
2023-03-07T00:13:07.000Z,992.2
2023-03-07T00:15:51.000Z,992.2
2023-03-07T00:18:36.000Z,992.2
2023-03-07T00:21:21.000Z,992.2
2023-03-07T00:24:22.000Z,992.1
2023-03-07T00:27:06.000Z,992.1
2023-03-07T00:28:24.000Z,992.1
2023-03-07T00:29:51.000Z,992.1
2023-03-07T00:32:35.000Z,992
2023-03-07T00:35:20.000Z,992.1
2023-03-07T00:38:05.000Z,992.1
2023-03-07T00:40:49.000Z,992.1
2023-03-07T00:43:34.000Z,992
2023-03-07T00:46:19.000Z,992
2023-03-07T00:49:03.000Z,992
2023-03-07T00:51:48.000Z,992
2023-03-07T00:54:33.000Z,991.9
2023-03-07T00:55:50.000Z,991.9
2023-03-07T00:57:17.000Z,991.9
2023-03-07T01:00:02.000Z,992
2023-03-07T01:02:46.000Z,991.9
2023-03-07T01:08:16.000Z,991.9
2023-03-07T01:11:00.000Z,991.8
2023-03-07T01:13:45.000Z,991.9
2023-03-07T01:16:30.000Z,991.9
2023-03-07T01:19:14.000Z,991.9
2023-03-07T01:21:59.000Z,991.9
2023-03-07T01:23:17.000Z,991.9
2023-03-07T01:24:44.000Z,991.8
2023-03-07T01:30:13.000Z,991.8
2023-03-07T01:32:58.000Z,991.7
2023-03-07T01:35:42.000Z,991.7
2023-03-07T01:38:27.000Z,991.6
2023-03-07T01:41:11.000Z,991.6
2023-03-07T01:43:56.000Z,991.5
2023-03-07T01:46:41.000Z,991.5
2023-03-07T01:49:25.000Z,991.4
2023-03-07T01:50:43.000Z,991.4
2023-03-07T01:52:10.000Z,991.4
2023-03-07T01:54:55.000Z,991.4
2023-03-07T01:57:39.000Z,991.3
2023-03-07T02:00:24.000Z,991.3
2023-03-07T02:03:09.000Z,991.2
2023-03-07T02:05:53.000Z,991.2
2023-03-07T02:08:38.000Z,991.1
2023-03-07T02:11:23.000Z,991.1
2023-03-07T02:14:07.000Z,991.1
2023-03-07T02:16:52.000Z,991.1
2023-03-07T02:18:10.000Z,991.1
2023-03-07T02:19:36.000Z,991.1
2023-03-07T02:22:21.000Z,991.1
2023-03-07T02:25:06.000Z,991.1
2023-03-07T02:27:50.000Z,991
2023-03-07T02:30:35.000Z,991
2023-03-07T02:33:20.000Z,991
2023-03-07T02:36:04.000Z,991
2023-03-07T02:38:49.000Z,990.9
2023-03-07T02:41:34.000Z,990.9
2023-03-07T02:44:18.000Z,990.9
2023-03-07T02:45:36.000Z,990.9
2023-03-07T02:47:03.000Z,990.9
2023-03-07T02:49:47.000Z,990.9
2023-03-07T02:52:32.000Z,990.9
2023-03-07T02:55:17.000Z,990.8
2023-03-07T02:58:01.000Z,990.9
2023-03-07T03:00:46.000Z,990.8
2023-03-07T03:03:31.000Z,990.8
2023-03-07T03:06:15.000Z,990.8
2023-03-07T03:09:00.000Z,990.8
2023-03-07T03:11:45.000Z,990.8
2023-03-07T03:13:02.000Z,990.7
2023-03-07T03:14:29.000Z,990.8
2023-03-07T03:17:14.000Z,990.8
2023-03-07T03:19:59.000Z,990.8
2023-03-07T03:28:12.000Z,990.7
2023-03-07T03:30:57.000Z,990.7
2023-03-07T03:33:42.000Z,990.7
2023-03-07T03:36:26.000Z,990.6
2023-03-07T03:39:11.000Z,990.6
2023-03-07T03:40:29.000Z,990.6
2023-03-07T03:41:56.000Z,990.6
2023-03-07T03:44:40.000Z,990.6
2023-03-07T03:47:25.000Z,990.6
2023-03-07T03:52:54.000Z,990.6
2023-03-07T03:55:39.000Z,990.7
2023-03-07T03:58:40.000Z,990.7
2023-03-07T04:01:25.000Z,990.7
2023-03-07T04:04:09.000Z,990.8
2023-03-07T04:06:54.000Z,990.9
2023-03-07T04:08:12.000Z,990.9
2023-03-07T04:09:38.000Z,990.9
2023-03-07T04:12:23.000Z,990.9
2023-03-07T04:15:08.000Z,990.9
2023-03-07T04:17:52.000Z,990.9
2023-03-07T04:20:37.000Z,991
2023-03-07T04:23:22.000Z,991
2023-03-07T04:26:23.000Z,990.9
2023-03-07T04:29:07.000Z,990.8
2023-03-07T04:31:52.000Z,990.8
2023-03-07T04:34:37.000Z,990.7
2023-03-07T04:35:54.000Z,990.7
2023-03-07T04:37:21.000Z,990.7
2023-03-07T04:40:06.000Z,990.7
2023-03-07T04:42:51.000Z,990.6
2023-03-07T04:45:35.000Z,990.6
2023-03-07T04:48:20.000Z,990.6
2023-03-07T04:51:04.000Z,990.5
2023-03-07T04:53:49.000Z,990.5
2023-03-07T04:56:34.000Z,990.6
2023-03-07T04:59:18.000Z,990.6
2023-03-07T05:02:03.000Z,990.6
2023-03-07T05:03:21.000Z,990.6
2023-03-07T05:04:48.000Z,990.6
2023-03-07T05:07:32.000Z,990.6
2023-03-07T05:10:17.000Z,990.6
2023-03-07T05:13:02.000Z,990.6
2023-03-07T05:18:31.000Z,990.6
2023-03-07T05:21:16.000Z,990.5
2023-03-07T05:24:00.000Z,990.4
2023-03-07T05:26:45.000Z,990.5
2023-03-07T05:29:29.000Z,990.5
2023-03-07T05:30:47.000Z,990.5
2023-03-07T05:32:14.000Z,990.5
2023-03-07T05:34:59.000Z,990.5
2023-03-07T05:37:43.000Z,990.4
2023-03-07T05:40:28.000Z,990.4
2023-03-07T05:43:13.000Z,990.4
2023-03-07T05:45:57.000Z,990.4
2023-03-07T05:48:42.000Z,990.4
2023-03-07T05:51:27.000Z,990.4
2023-03-07T05:54:11.000Z,990.4
2023-03-07T05:56:56.000Z,990.4
2023-03-07T05:58:14.000Z,990.3
2023-03-07T05:59:40.000Z,990.3
2023-03-07T06:05:10.000Z,990.3
2023-03-07T06:07:54.000Z,990.3
2023-03-07T06:10:39.000Z,990.2
2023-03-07T06:13:24.000Z,990.2
2023-03-07T06:16:08.000Z,990.2
2023-03-07T06:18:53.000Z,990.2
2023-03-07T06:21:38.000Z,990.2
2023-03-07T06:24:22.000Z,990.2
2023-03-07T06:25:40.000Z,990.2
2023-03-07T06:27:07.000Z,990.2
2023-03-07T06:29:52.000Z,990.1
2023-03-07T06:32:36.000Z,990.2
2023-03-07T06:35:21.000Z,990.2
2023-03-07T06:38:05.000Z,990.3
2023-03-07T06:40:50.000Z,990.3
2023-03-07T06:43:35.000Z,990.3
2023-03-07T06:46:19.000Z,990.3
2023-03-07T06:49:04.000Z,990.3
2023-03-07T06:51:49.000Z,990.3
2023-03-07T06:53:06.000Z,990.2
2023-03-07T07:02:47.000Z,990.4
2023-03-07T07:05:32.000Z,990.4
2023-03-07T07:08:17.000Z,990.4
2023-03-07T07:11:01.000Z,990.4
2023-03-07T07:14:02.000Z,990.4
2023-03-07T07:16:47.000Z,990.5
2023-03-07T07:19:31.000Z,990.5
2023-03-07T07:20:49.000Z,990.5
2023-03-07T07:22:16.000Z,990.5
2023-03-07T07:25:01.000Z,990.6
2023-03-07T07:27:45.000Z,990.6
2023-03-07T07:30:30.000Z,990.6
2023-03-07T07:33:15.000Z,990.7
2023-03-07T07:35:59.000Z,990.6
2023-03-07T07:38:44.000Z,990.7
2023-03-07T07:41:45.000Z,990.7
2023-03-07T07:44:30.000Z,990.8
2023-03-07T07:47:14.000Z,990.8
2023-03-07T07:48:32.000Z,990.8
2023-03-07T07:49:59.000Z,990.8
2023-03-07T07:52:44.000Z,990.8
2023-03-07T07:55:28.000Z,990.8
2023-03-07T07:58:13.000Z,990.8
2023-03-07T08:00:57.000Z,990.8
2023-03-07T08:03:42.000Z,990.8
2023-03-07T08:06:27.000Z,990.8
2023-03-07T08:09:11.000Z,990.8
2023-03-07T08:11:56.000Z,990.8
2023-03-07T08:14:41.000Z,990.8
2023-03-07T08:15:58.000Z,990.8
2023-03-07T08:17:25.000Z,990.8
2023-03-07T08:20:10.000Z,990.8
2023-03-07T08:22:55.000Z,990.8
2023-03-07T08:25:39.000Z,990.8
2023-03-07T08:28:24.000Z,990.8
2023-03-07T08:31:09.000Z,990.7
2023-03-07T08:33:53.000Z,990.7
2023-03-07T08:36:38.000Z,990.8
2023-03-07T08:39:22.000Z,990.8
2023-03-07T08:42:07.000Z,990.8
2023-03-07T08:43:25.000Z,990.8
2023-03-07T08:44:52.000Z,990.8
2023-03-07T08:47:36.000Z,990.8
2023-03-07T08:50:21.000Z,990.7
2023-03-07T08:53:06.000Z,990.7
2023-03-07T08:55:50.000Z,990.7
2023-03-07T08:58:35.000Z,990.7
2023-03-07T09:01:20.000Z,990.8
2023-03-07T09:04:04.000Z,990.8
2023-03-07T09:06:49.000Z,990.9
2023-03-07T09:09:33.000Z,990.9
2023-03-07T09:10:51.000Z,990.9
2023-03-07T09:12:18.000Z,990.9
2023-03-07T09:15:03.000Z,990.9
2023-03-07T09:17:47.000Z,991
2023-03-07T09:20:32.000Z,991
2023-03-07T09:23:17.000Z,990.9
2023-03-07T09:26:01.000Z,990.9
2023-03-07T09:28:46.000Z,990.9
2023-03-07T09:34:15.000Z,991.1
2023-03-07T09:37:00.000Z,991.1
2023-03-07T09:38:18.000Z,991.1
2023-03-07T09:39:45.000Z,991.1
2023-03-07T09:42:29.000Z,991.1
2023-03-07T09:45:14.000Z,991.1
2023-03-07T09:47:58.000Z,991.1
2023-03-07T09:50:43.000Z,991.1
2023-03-07T09:53:28.000Z,991
2023-03-07T09:56:12.000Z,991
2023-03-07T09:58:57.000Z,991.1
2023-03-07T10:01:42.000Z,991
2023-03-07T10:04:26.000Z,991
2023-03-07T10:05:44.000Z,991
2023-03-07T10:07:11.000Z,991
2023-03-07T10:09:56.000Z,991
2023-03-07T10:12:40.000Z,990.9
2023-03-07T10:15:25.000Z,991
2023-03-07T10:18:10.000Z,991
2023-03-07T10:20:54.000Z,991
2023-03-07T10:23:39.000Z,990.9
2023-03-07T10:26:23.000Z,990.9
2023-03-07T10:29:08.000Z,990.9
2023-03-07T10:31:53.000Z,990.9
2023-03-07T10:33:11.000Z,990.8
2023-03-07T10:34:37.000Z,990.8
2023-03-07T10:37:22.000Z,990.8
2023-03-07T10:40:07.000Z,990.9
2023-03-07T10:42:51.000Z,990.9
2023-03-07T10:45:36.000Z,990.9
2023-03-07T10:48:21.000Z,990.9
2023-03-07T10:51:05.000Z,990.9
2023-03-07T10:53:50.000Z,990.9
2023-03-07T10:56:35.000Z,990.8
2023-03-07T10:59:19.000Z,990.8
2023-03-07T11:00:37.000Z,990.8
2023-03-07T11:02:04.000Z,990.8
2023-03-07T11:04:48.000Z,990.8
2023-03-07T11:07:33.000Z,990.8
2023-03-07T11:10:18.000Z,990.9
2023-03-07T11:13:02.000Z,990.9
2023-03-07T11:15:47.000Z,990.9
2023-03-07T11:18:32.000Z,990.9
2023-03-07T11:21:16.000Z,990.9
2023-03-07T11:24:01.000Z,990.9
2023-03-07T11:26:46.000Z,990.9
2023-03-07T11:28:03.000Z,990.8
2023-03-07T11:29:30.000Z,990.9
2023-03-07T11:32:15.000Z,990.8
2023-03-07T11:34:59.000Z,990.9
2023-03-07T11:37:44.000Z,990.9
2023-03-07T11:40:29.000Z,990.9
2023-03-07T11:43:13.000Z,991
2023-03-07T11:45:58.000Z,991
2023-03-07T11:48:43.000Z,991
2023-03-07T11:51:27.000Z,991
2023-03-07T11:54:12.000Z,991
2023-03-07T11:55:30.000Z,991
2023-03-07T11:56:57.000Z,991
2023-03-07T11:59:41.000Z,991
2023-03-07T12:02:26.000Z,991
2023-03-07T12:05:11.000Z,991
2023-03-07T12:07:55.000Z,991.1
2023-03-07T12:10:40.000Z,991.1
2023-03-07T12:13:24.000Z,991.1
2023-03-07T12:16:09.000Z,991.1
2023-03-07T12:18:54.000Z,991.1
2023-03-07T12:21:38.000Z,991.1
2023-03-07T12:22:56.000Z,991.1
2023-03-07T12:24:23.000Z,991.1
2023-03-07T12:27:08.000Z,991.1
2023-03-07T12:32:37.000Z,991.1
2023-03-07T12:35:22.000Z,991.1
2023-03-07T12:38:06.000Z,991.2
2023-03-07T12:40:51.000Z,991.1
2023-03-07T12:43:36.000Z,991.1
2023-03-07T12:46:20.000Z,991.1
2023-03-07T12:49:05.000Z,991.1
2023-03-07T12:50:23.000Z,991.1
2023-03-07T12:51:49.000Z,991.1
2023-03-07T12:54:34.000Z,991.1
2023-03-07T12:57:19.000Z,991
2023-03-07T13:00:03.000Z,991
2023-03-07T13:02:48.000Z,991
2023-03-07T13:05:33.000Z,991
2023-03-07T13:08:17.000Z,991
2023-03-07T13:11:02.000Z,990.9
2023-03-07T13:13:47.000Z,990.9
2023-03-07T13:17:49.000Z,991
2023-03-07T13:19:16.000Z,991
2023-03-07T13:22:00.000Z,991
2023-03-07T13:24:45.000Z,990.9
2023-03-07T13:27:30.000Z,991
2023-03-07T13:30:14.000Z,991
2023-03-07T13:32:59.000Z,990.9
2023-03-07T13:35:44.000Z,990.9
2023-03-07T13:38:28.000Z,990.9
2023-03-07T13:41:13.000Z,990.9
2023-03-07T13:43:58.000Z,990.9
2023-03-07T13:45:16.000Z,990.9
2023-03-07T13:46:42.000Z,990.9
2023-03-07T13:49:27.000Z,990.9
2023-03-07T13:52:12.000Z,990.9
2023-03-07T13:54:56.000Z,990.9
2023-03-07T14:00:25.000Z,990.9
2023-03-07T14:03:10.000Z,990.8
2023-03-07T14:05:55.000Z,990.8
2023-03-07T14:08:39.000Z,990.9
2023-03-07T14:11:24.000Z,990.9
2023-03-07T14:12:42.000Z,990.9
2023-03-07T14:14:09.000Z,990.9
2023-03-07T14:16:53.000Z,990.9
2023-03-07T14:19:38.000Z,990.9
2023-03-07T14:22:23.000Z,990.9
2023-03-07T14:25:07.000Z,990.9
2023-03-07T14:27:52.000Z,990.8
2023-03-07T14:30:37.000Z,990.9
2023-03-07T14:33:21.000Z,990.9
2023-03-07T14:38:50.000Z,991.2
2023-03-07T14:40:08.000Z,991.3
2023-03-07T14:41:35.000Z,991.3
2023-03-07T14:44:20.000Z,991.3
2023-03-07T14:47:04.000Z,991.4
2023-03-07T14:49:49.000Z,991.3
2023-03-07T14:52:34.000Z,991.4
2023-03-07T14:55:18.000Z,991.5
2023-03-07T14:58:03.000Z,991.5
2023-03-07T15:00:48.000Z,991.5
2023-03-07T15:03:32.000Z,991.5
2023-03-07T15:06:17.000Z,991.6
2023-03-07T15:07:35.000Z,991.5
2023-03-07T15:09:02.000Z,991.5
2023-03-07T15:11:46.000Z,991.6
2023-03-07T15:14:31.000Z,991.5
2023-03-07T15:17:15.000Z,991.5
2023-03-07T15:20:00.000Z,991.5
2023-03-07T15:22:45.000Z,991.6
2023-03-07T15:25:29.000Z,991.6
2023-03-07T15:28:14.000Z,991.6
2023-03-07T15:30:59.000Z,991.6
2023-03-07T15:33:43.000Z,991.6
2023-03-07T15:35:01.000Z,991.6
2023-03-07T15:36:44.000Z,991.7
2023-03-07T15:39:29.000Z,991.6
2023-03-07T15:42:14.000Z,991.7
2023-03-07T15:44:58.000Z,991.7
2023-03-07T15:47:43.000Z,991.7
2023-03-07T15:50:28.000Z,991.8
2023-03-07T15:53:29.000Z,991.7
2023-03-07T15:56:13.000Z,991.8
2023-03-07T15:58:58.000Z,991.7
2023-03-07T16:01:42.000Z,991.7
2023-03-07T16:03:00.000Z,991.7
2023-03-07T16:04:27.000Z,991.7
2023-03-07T16:07:12.000Z,991.7
2023-03-07T16:09:56.000Z,991.6
2023-03-07T16:12:41.000Z,991.6
2023-03-07T16:15:26.000Z,991.6
2023-03-07T16:18:10.000Z,991.6
2023-03-07T16:20:55.000Z,991.7
2023-03-07T16:23:40.000Z,991.7
2023-03-07T16:26:24.000Z,991.6
2023-03-07T16:29:09.000Z,991.7
2023-03-07T16:30:27.000Z,991.7
2023-03-07T16:31:54.000Z,991.8
2023-03-07T16:34:38.000Z,991.8
2023-03-07T16:37:23.000Z,991.8
2023-03-07T16:40:07.000Z,991.7
2023-03-07T16:42:52.000Z,991.8
2023-03-07T16:45:37.000Z,991.8
2023-03-07T16:48:21.000Z,991.7
2023-03-07T16:51:06.000Z,991.8
2023-03-07T16:53:51.000Z,991.8
2023-03-07T16:56:35.000Z,991.9
2023-03-07T16:59:20.000Z,991.9
2023-03-07T17:00:38.000Z,991.9
2023-03-07T17:02:05.000Z,991.9
2023-03-07T17:04:49.000Z,992
2023-03-07T17:07:34.000Z,992
2023-03-07T17:10:19.000Z,992
2023-03-07T17:13:03.000Z,992.1
2023-03-07T17:15:48.000Z,992.2
2023-03-07T17:18:32.000Z,992.2
2023-03-07T17:21:17.000Z,992.2
2023-03-07T17:24:02.000Z,992.2
2023-03-07T17:26:46.000Z,992.2
2023-03-07T17:28:04.000Z,992.3
2023-03-07T17:29:31.000Z,992.3
2023-03-07T17:32:16.000Z,992.3
2023-03-07T17:35:00.000Z,992.4
2023-03-07T17:37:45.000Z,992.5
2023-03-07T17:40:30.000Z,992.5
2023-03-07T17:43:14.000Z,992.5
2023-03-07T17:45:59.000Z,992.6
2023-03-07T17:48:44.000Z,992.7
2023-03-07T17:51:28.000Z,992.7
2023-03-07T17:54:13.000Z,992.7
2023-03-07T17:55:31.000Z,992.8
2023-03-07T17:56:57.000Z,992.8
2023-03-07T17:59:42.000Z,992.8
2023-03-07T18:02:27.000Z,992.8
2023-03-07T18:05:11.000Z,992.8
2023-03-07T18:07:56.000Z,992.8
2023-03-07T18:10:41.000Z,992.9
2023-03-07T18:13:25.000Z,992.8
2023-03-07T18:16:10.000Z,992.9
2023-03-07T18:18:55.000Z,992.9
2023-03-07T18:21:39.000Z,992.9
2023-03-07T18:22:57.000Z,993
2023-03-07T18:24:24.000Z,993
2023-03-07T18:27:08.000Z,993.1
2023-03-07T18:29:53.000Z,993.1
2023-03-07T18:32:38.000Z,993.1
2023-03-07T18:35:22.000Z,993.1
2023-03-07T18:38:07.000Z,993.1
2023-03-07T18:43:36.000Z,993.1
2023-03-07T18:46:21.000Z,993.2
2023-03-07T18:49:06.000Z,993.1
2023-03-07T18:50:23.000Z,993.2
2023-03-07T18:51:50.000Z,993.2
2023-03-07T18:54:35.000Z,993.2
2023-03-07T18:57:20.000Z,993.4
2023-03-07T19:00:04.000Z,993.3
2023-03-07T19:02:49.000Z,993.4
2023-03-07T19:05:33.000Z,993.5
2023-03-07T19:08:18.000Z,993.5
2023-03-07T19:11:03.000Z,993.5
2023-03-07T19:13:47.000Z,993.4
2023-03-07T19:16:32.000Z,993.5
2023-03-07T19:17:50.000Z,993.5
2023-03-07T19:19:17.000Z,993.5
2023-03-07T19:22:01.000Z,993.5
2023-03-07T19:24:46.000Z,993.5
2023-03-07T19:27:31.000Z,993.5
2023-03-07T19:30:15.000Z,993.5
2023-03-07T19:33:00.000Z,993.5
2023-03-07T19:35:45.000Z,993.7
2023-03-07T19:38:29.000Z,993.7
2023-03-07T19:43:58.000Z,993.7
2023-03-07T19:45:16.000Z,993.8
2023-03-07T19:46:43.000Z,993.8
2023-03-07T19:49:28.000Z,993.8
2023-03-07T19:52:12.000Z,993.8
2023-03-07T19:54:57.000Z,993.8
2023-03-07T19:57:42.000Z,993.9
2023-03-07T20:00:26.000Z,993.8
2023-03-07T20:03:11.000Z,993.8
2023-03-07T20:05:56.000Z,993.7
2023-03-07T20:08:40.000Z,993.7
2023-03-07T20:11:25.000Z,993.9
2023-03-07T20:12:43.000Z,993.9
2023-03-07T20:14:09.000Z,993.9
2023-03-07T20:16:54.000Z,993.9
2023-03-07T20:19:39.000Z,994
2023-03-07T20:22:23.000Z,993.9
2023-03-07T20:25:08.000Z,994
2023-03-07T20:27:53.000Z,993.9
2023-03-07T20:30:37.000Z,993.9
2023-03-07T20:33:22.000Z,994
2023-03-07T20:36:07.000Z,994
2023-03-07T20:38:51.000Z,994
2023-03-07T20:40:09.000Z,994.1
2023-03-07T20:41:36.000Z,994.1
2023-03-07T20:44:21.000Z,994.1
2023-03-07T20:47:05.000Z,994.1
2023-03-07T20:49:50.000Z,994.1
2023-03-07T20:52:34.000Z,994.1
2023-03-07T20:55:19.000Z,994.2
2023-03-07T20:58:04.000Z,994.2
2023-03-07T21:00:48.897Z,994.2
2023-03-07T21:03:33.000Z,994.2
2023-03-07T21:06:18.000Z,994.2
2023-03-07T21:07:36.000Z,994.1
2023-03-07T21:09:02.000Z,994.1
2023-03-07T21:11:47.000Z,994.2
2023-03-07T21:14:32.000Z,994.2
2023-03-07T21:17:16.000Z,994.2
2023-03-07T21:20:01.000Z,994.1
2023-03-07T21:22:46.000Z,994.2
2023-03-07T21:25:30.000Z,994.2
2023-03-07T21:28:15.000Z,994.2
2023-03-07T21:30:59.000Z,994.2
2023-03-07T21:33:44.000Z,994.2
2023-03-07T21:35:02.000Z,994.2
2023-03-07T21:36:29.000Z,994.3
2023-03-07T21:39:13.000Z,994.3
2023-03-07T21:41:58.000Z,994.3
2023-03-07T21:44:43.000Z,994.4
2023-03-07T21:47:27.000Z,994.5
2023-03-07T21:50:12.000Z,994.5
2023-03-07T21:52:57.000Z,994.5
2023-03-07T21:55:41.000Z,994.5
2023-03-07T21:58:26.000Z,994.5
2023-03-07T22:01:10.000Z,994.5
2023-03-07T22:02:28.000Z,994.6
2023-03-07T22:03:55.000Z,994.6
2023-03-07T22:06:40.000Z,994.7
2023-03-07T22:09:24.000Z,994.7
2023-03-07T22:12:09.000Z,994.7
2023-03-07T22:14:54.000Z,994.7
2023-03-07T22:17:38.000Z,994.7
2023-03-07T22:20:23.000Z,994.8
2023-03-07T22:23:08.000Z,994.8
2023-03-07T22:25:52.000Z,994.7
2023-03-07T22:28:37.000Z,994.7
2023-03-07T22:29:55.000Z,994.7
2023-03-07T22:31:22.000Z,994.7
2023-03-07T22:34:06.000Z,994.7
2023-03-07T22:36:51.000Z,994.7
2023-03-07T22:39:35.000Z,994.8
2023-03-07T22:42:20.000Z,994.8
2023-03-07T22:45:05.000Z,994.8
2023-03-07T22:47:49.000Z,994.8
2023-03-07T22:50:34.000Z,994.8
2023-03-07T22:53:19.000Z,994.8
2023-03-07T22:56:03.000Z,994.8
2023-03-07T22:57:21.000Z,994.8
2023-03-07T22:58:48.000Z,994.8
2023-03-07T23:01:33.000Z,994.8
2023-03-07T23:04:17.000Z,994.8
2023-03-07T23:07:02.000Z,994.9
2023-03-07T23:09:47.000Z,994.9
2023-03-07T23:12:31.000Z,994.9
2023-03-07T23:15:16.000Z,994.9
2023-03-07T23:18:00.000Z,994.9
2023-03-07T23:20:45.000Z,994.9
2023-03-07T23:23:30.000Z,994.9
2023-03-07T23:24:48.000Z,994.9
2023-03-07T23:26:14.000Z,994.8
2023-03-07T23:28:59.000Z,994.9
2023-03-07T23:31:44.000Z,994.9
2023-03-07T23:34:28.000Z,995
2023-03-07T23:37:13.000Z,995
2023-03-07T23:39:58.000Z,994.9
2023-03-07T23:42:42.000Z,994.9
2023-03-07T23:45:27.000Z,995
2023-03-07T23:48:12.000Z,995
2023-03-07T23:50:56.000Z,995.1
2023-03-07T23:52:14.000Z,995.1
2023-03-07T23:53:41.000Z,995.1
2023-03-07T23:56:42.000Z,995.2
2023-03-07T23:59:26.000Z,995.2
